sensor_id;sensor_type;location;lat;lon;timestamp;P1;durP1;ratioP1;P2;durP2;ratioP2
30307;SDS011;17114;52.314;8.910;2023-01-19T00:01:36;21.88;;;10.68;;
30307;SDS011;17114;52.314;8.910;2023-01-19T00:04:03;19.52;;;9.68;;
30307;SDS011;17114;52.314;8.910;2023-01-19T00:06:31;16.50;;;10.15;;
30307;SDS011;17114;52.314;8.910;2023-01-19T00:08:58;19.98;;;9.82;;
30307;SDS011;17114;52.314;8.910;2023-01-19T00:11:25;19.00;;;10.35;;
30307;SDS011;17114;52.314;8.910;2023-01-19T00:13:53;19.35;;;10.55;;
30307;SDS011;17114;52.314;8.910;2023-01-19T00:16:20;20.95;;;10.25;;
30307;SDS011;17114;52.314;8.910;2023-01-19T00:18:49;20.17;;;10.00;;
30307;SDS011;17114;52.314;8.910;2023-01-19T00:21:17;17.20;;;10.10;;
30307;SDS011;17114;52.314;8.910;2023-01-19T00:23:47;17.60;;;10.18;;
30307;SDS011;17114;52.314;8.910;2023-01-19T00:26:17;22.40;;;10.98;;
30307;SDS011;17114;52.314;8.910;2023-01-19T00:28:48;20.77;;;10.88;;
30307;SDS011;17114;52.314;8.910;2023-01-19T00:31:16;21.85;;;10.82;;
30307;SDS011;17114;52.314;8.910;2023-01-19T00:33:46;21.88;;;10.80;;
30307;SDS011;17114;52.314;8.910;2023-01-19T00:36:14;27.27;;;11.82;;
30307;SDS011;17114;52.314;8.910;2023-01-19T00:38:42;19.67;;;10.95;;
30307;SDS011;17114;52.314;8.910;2023-01-19T00:41:09;19.17;;;10.85;;
30307;SDS011;17114;52.314;8.910;2023-01-19T00:43:36;19.45;;;10.60;;
30307;SDS011;17114;52.314;8.910;2023-01-19T00:46:03;22.73;;;11.13;;
30307;SDS011;17114;52.314;8.910;2023-01-19T00:48:30;22.70;;;10.82;;
30307;SDS011;17114;52.314;8.910;2023-01-19T00:50:57;20.85;;;11.13;;
30307;SDS011;17114;52.314;8.910;2023-01-19T00:53:25;23.90;;;10.88;;
30307;SDS011;17114;52.314;8.910;2023-01-19T00:55:54;19.38;;;10.70;;
30307;SDS011;17114;52.314;8.910;2023-01-19T00:58:21;22.77;;;10.85;;
30307;SDS011;17114;52.314;8.910;2023-01-19T01:00:52;18.55;;;11.00;;
30307;SDS011;17114;52.314;8.910;2023-01-19T01:03:19;25.25;;;12.15;;
30307;SDS011;17114;52.314;8.910;2023-01-19T01:05:53;16.20;;;8.98;;
30307;SDS011;17114;52.314;8.910;2023-01-19T01:08:24;21.85;;;12.57;;
30307;SDS011;17114;52.314;8.910;2023-01-19T01:10:51;24.30;;;12.00;;
30307;SDS011;17114;52.314;8.910;2023-01-19T01:13:21;22.98;;;12.07;;
30307;SDS011;17114;52.314;8.910;2023-01-19T01:15:53;21.42;;;12.40;;
30307;SDS011;17114;52.314;8.910;2023-01-19T01:18:21;20.90;;;11.98;;
30307;SDS011;17114;52.314;8.910;2023-01-19T01:20:48;22.55;;;12.13;;
30307;SDS011;17114;52.314;8.910;2023-01-19T01:23:15;27.10;;;12.70;;
30307;SDS011;17114;52.314;8.910;2023-01-19T01:25:48;22.48;;;13.00;;
30307;SDS011;17114;52.314;8.910;2023-01-19T01:28:15;21.65;;;11.63;;
30307;SDS011;17114;52.314;8.910;2023-01-19T01:30:42;20.50;;;11.57;;
30307;SDS011;17114;52.314;8.910;2023-01-19T01:33:09;23.30;;;12.68;;
30307;SDS011;17114;52.314;8.910;2023-01-19T01:35:37;21.90;;;12.23;;
30307;SDS011;17114;52.314;8.910;2023-01-19T01:38:05;25.23;;;12.40;;
30307;SDS011;17114;52.314;8.910;2023-01-19T01:40:33;26.10;;;13.32;;
30307;SDS011;17114;52.314;8.910;2023-01-19T01:43:00;27.45;;;13.30;;
30307;SDS011;17114;52.314;8.910;2023-01-19T01:45:46;24.20;;;12.23;;
30307;SDS011;17114;52.314;8.910;2023-01-19T01:50:46;24.50;;;12.48;;
30307;SDS011;17114;52.314;8.910;2023-01-19T01:53:35;24.98;;;12.65;;
30307;SDS011;17114;52.314;8.910;2023-01-19T01:56:05;24.92;;;13.30;;
30307;SDS011;17114;52.314;8.910;2023-01-19T01:58:35;22.42;;;12.73;;
30307;SDS011;17114;52.314;8.910;2023-01-19T02:01:04;21.75;;;12.48;;
30307;SDS011;17114;52.314;8.910;2023-01-19T02:03:54;26.75;;;13.95;;
30307;SDS011;17114;52.314;8.910;2023-01-19T02:06:22;22.08;;;12.85;;
30307;SDS011;17114;52.314;8.910;2023-01-19T02:08:57;24.95;;;13.80;;
30307;SDS011;17114;52.314;8.910;2023-01-19T02:11:49;23.65;;;13.43;;
30307;SDS011;17114;52.314;8.910;2023-01-19T02:14:35;25.92;;;13.18;;
30307;SDS011;17114;52.314;8.910;2023-01-19T02:17:02;25.38;;;13.73;;
30307;SDS011;17114;52.314;8.910;2023-01-19T02:19:33;24.27;;;12.35;;
30307;SDS011;17114;52.314;8.910;2023-01-19T02:22:17;25.63;;;13.60;;
30307;SDS011;17114;52.314;8.910;2023-01-19T02:24:52;24.25;;;13.02;;
30307;SDS011;17114;52.314;8.910;2023-01-19T02:27:21;27.50;;;13.48;;
30307;SDS011;17114;52.314;8.910;2023-01-19T02:29:48;30.30;;;13.73;;
30307;SDS011;17114;52.314;8.910;2023-01-19T02:32:15;26.75;;;14.20;;
30307;SDS011;17114;52.314;8.910;2023-01-19T02:34:42;25.42;;;14.00;;
30307;SDS011;17114;52.314;8.910;2023-01-19T02:37:10;25.00;;;14.48;;
30307;SDS011;17114;52.314;8.910;2023-01-19T02:39:52;27.17;;;14.07;;
30307;SDS011;17114;52.314;8.910;2023-01-19T02:42:29;30.70;;;14.15;;
30307;SDS011;17114;52.314;8.910;2023-01-19T02:45:04;28.92;;;15.00;;
30307;SDS011;17114;52.314;8.910;2023-01-19T02:47:42;25.67;;;13.70;;
30307;SDS011;17114;52.314;8.910;2023-01-19T03:01:20;26.35;;;13.93;;
30307;SDS011;17114;52.314;8.910;2023-01-19T03:04:48;24.58;;;13.40;;
30307;SDS011;17114;52.314;8.910;2023-01-19T03:07:15;29.08;;;13.90;;
30307;SDS011;17114;52.314;8.910;2023-01-19T03:12:30;27.95;;;14.30;;
30307;SDS011;17114;52.314;8.910;2023-01-19T03:15:01;23.10;;;13.27;;
30307;SDS011;17114;52.314;8.910;2023-01-19T03:17:39;31.33;;;14.60;;
30307;SDS011;17114;52.314;8.910;2023-01-19T03:20:10;23.73;;;13.60;;
30307;SDS011;17114;52.314;8.910;2023-01-19T03:22:41;22.00;;;14.07;;
30307;SDS011;17114;52.314;8.910;2023-01-19T03:25:10;31.88;;;14.35;;
30307;SDS011;17114;52.314;8.910;2023-01-19T03:27:40;26.20;;;14.38;;
30307;SDS011;17114;52.314;8.910;2023-01-19T03:30:12;25.27;;;14.35;;
30307;SDS011;17114;52.314;8.910;2023-01-19T03:32:46;24.55;;;14.93;;
30307;SDS011;17114;52.314;8.910;2023-01-19T03:35:17;23.98;;;14.85;;
30307;SDS011;17114;52.314;8.910;2023-01-19T03:37:49;21.80;;;13.43;;
30307;SDS011;17114;52.314;8.910;2023-01-19T03:40:18;25.73;;;14.73;;
30307;SDS011;17114;52.314;8.910;2023-01-19T03:42:46;29.20;;;15.73;;
30307;SDS011;17114;52.314;8.910;2023-01-19T03:45:15;24.95;;;14.40;;
30307;SDS011;17114;52.314;8.910;2023-01-19T03:47:43;29.70;;;14.52;;
30307;SDS011;17114;52.314;8.910;2023-01-19T03:50:12;26.50;;;14.10;;
30307;SDS011;17114;52.314;8.910;2023-01-19T03:52:58;27.85;;;14.77;;
30307;SDS011;17114;52.314;8.910;2023-01-19T03:55:46;23.17;;;13.82;;
30307;SDS011;17114;52.314;8.910;2023-01-19T03:58:15;23.17;;;13.82;;
30307;SDS011;17114;52.314;8.910;2023-01-19T04:00:43;21.95;;;13.75;;
30307;SDS011;17114;52.314;8.910;2023-01-19T04:03:12;22.38;;;13.90;;
30307;SDS011;17114;52.314;8.910;2023-01-19T04:05:41;26.42;;;14.63;;
30307;SDS011;17114;52.314;8.910;2023-01-19T04:08:09;26.10;;;13.93;;
30307;SDS011;17114;52.314;8.910;2023-01-19T04:10:37;24.42;;;14.18;;
30307;SDS011;17114;52.314;8.910;2023-01-19T04:13:04;25.75;;;14.50;;
30307;SDS011;17114;52.314;8.910;2023-01-19T04:15:31;25.25;;;14.30;;
30307;SDS011;17114;52.314;8.910;2023-01-19T04:17:59;26.83;;;14.20;;
30307;SDS011;17114;52.314;8.910;2023-01-19T04:20:27;23.52;;;13.63;;
30307;SDS011;17114;52.314;8.910;2023-01-19T04:22:57;23.98;;;13.68;;
30307;SDS011;17114;52.314;8.910;2023-01-19T04:25:26;29.58;;;13.35;;
30307;SDS011;17114;52.314;8.910;2023-01-19T04:27:54;29.20;;;12.85;;
30307;SDS011;17114;52.314;8.910;2023-01-19T04:30:23;25.52;;;14.23;;
30307;SDS011;17114;52.314;8.910;2023-01-19T04:32:50;23.27;;;12.60;;
30307;SDS011;17114;52.314;8.910;2023-01-19T04:35:18;26.77;;;14.30;;
30307;SDS011;17114;52.314;8.910;2023-01-19T04:37:45;25.05;;;13.05;;
30307;SDS011;17114;52.314;8.910;2023-01-19T04:40:12;23.40;;;13.52;;
30307;SDS011;17114;52.314;8.910;2023-01-19T04:42:43;22.13;;;12.77;;
30307;SDS011;17114;52.314;8.910;2023-01-19T04:45:11;21.67;;;12.95;;
30307;SDS011;17114;52.314;8.910;2023-01-19T04:47:39;28.77;;;12.60;;
30307;SDS011;17114;52.314;8.910;2023-01-19T04:50:08;21.23;;;12.07;;
30307;SDS011;17114;52.314;8.910;2023-01-19T04:52:37;23.27;;;12.65;;
30307;SDS011;17114;52.314;8.910;2023-01-19T04:55:05;23.70;;;13.93;;
30307;SDS011;17114;52.314;8.910;2023-01-19T04:57:32;25.27;;;13.90;;
30307;SDS011;17114;52.314;8.910;2023-01-19T05:00:00;29.67;;;14.27;;
30307;SDS011;17114;52.314;8.910;2023-01-19T05:02:28;24.90;;;13.02;;
30307;SDS011;17114;52.314;8.910;2023-01-19T05:04:55;21.85;;;13.13;;
30307;SDS011;17114;52.314;8.910;2023-01-19T05:07:23;23.15;;;12.00;;
30307;SDS011;17114;52.314;8.910;2023-01-19T05:09:50;25.38;;;13.35;;
30307;SDS011;17114;52.314;8.910;2023-01-19T05:12:17;27.02;;;13.10;;
30307;SDS011;17114;52.314;8.910;2023-01-19T05:14:44;22.13;;;12.13;;
30307;SDS011;17114;52.314;8.910;2023-01-19T05:17:12;23.52;;;12.48;;
30307;SDS011;17114;52.314;8.910;2023-01-19T05:19:39;19.73;;;12.55;;
30307;SDS011;17114;52.314;8.910;2023-01-19T05:22:06;23.98;;;13.10;;
30307;SDS011;17114;52.314;8.910;2023-01-19T05:24:34;24.30;;;12.80;;
30307;SDS011;17114;52.314;8.910;2023-01-19T05:27:01;26.38;;;13.45;;
30307;SDS011;17114;52.314;8.910;2023-01-19T05:29:29;22.15;;;11.80;;
30307;SDS011;17114;52.314;8.910;2023-01-19T05:31:56;24.63;;;13.32;;
30307;SDS011;17114;52.314;8.910;2023-01-19T05:34:24;24.77;;;12.63;;
30307;SDS011;17114;52.314;8.910;2023-01-19T05:36:52;23.58;;;12.00;;
30307;SDS011;17114;52.314;8.910;2023-01-19T05:39:20;26.02;;;12.13;;
30307;SDS011;17114;52.314;8.910;2023-01-19T05:41:47;24.60;;;12.70;;
30307;SDS011;17114;52.314;8.910;2023-01-19T05:44:14;22.45;;;11.90;;
30307;SDS011;17114;52.314;8.910;2023-01-19T05:46:42;24.05;;;13.00;;
30307;SDS011;17114;52.314;8.910;2023-01-19T05:49:10;22.10;;;11.65;;
30307;SDS011;17114;52.314;8.910;2023-01-19T05:51:38;23.42;;;11.80;;
30307;SDS011;17114;52.314;8.910;2023-01-19T05:54:12;21.75;;;12.20;;
30307;SDS011;17114;52.314;8.910;2023-01-19T05:56:43;20.80;;;11.68;;
30307;SDS011;17114;52.314;8.910;2023-01-19T05:59:10;27.05;;;11.95;;
30307;SDS011;17114;52.314;8.910;2023-01-19T06:01:38;22.40;;;11.68;;
30307;SDS011;17114;52.314;8.910;2023-01-19T06:04:05;19.83;;;11.35;;
30307;SDS011;17114;52.314;8.910;2023-01-19T06:06:33;21.08;;;11.82;;
30307;SDS011;17114;52.314;8.910;2023-01-19T06:09:00;22.73;;;12.13;;
30307;SDS011;17114;52.314;8.910;2023-01-19T06:11:27;24.20;;;11.27;;
30307;SDS011;17114;52.314;8.910;2023-01-19T06:13:55;21.52;;;11.45;;
30307;SDS011;17114;52.314;8.910;2023-01-19T06:16:25;25.98;;;11.48;;
30307;SDS011;17114;52.314;8.910;2023-01-19T06:18:53;17.83;;;11.07;;
30307;SDS011;17114;52.314;8.910;2023-01-19T06:21:21;24.00;;;11.38;;
30307;SDS011;17114;52.314;8.910;2023-01-19T06:23:49;23.08;;;11.55;;
30307;SDS011;17114;52.314;8.910;2023-01-19T06:26:16;20.20;;;11.18;;
30307;SDS011;17114;52.314;8.910;2023-01-19T06:28:44;24.63;;;10.90;;
30307;SDS011;17114;52.314;8.910;2023-01-19T06:31:12;18.77;;;10.30;;
30307;SDS011;17114;52.314;8.910;2023-01-19T06:33:39;17.63;;;10.10;;
30307;SDS011;17114;52.314;8.910;2023-01-19T06:36:07;20.27;;;10.05;;
30307;SDS011;17114;52.314;8.910;2023-01-19T06:38:35;20.63;;;10.18;;
30307;SDS011;17114;52.314;8.910;2023-01-19T06:41:02;20.75;;;10.50;;
30307;SDS011;17114;52.314;8.910;2023-01-19T06:43:30;26.20;;;10.90;;
30307;SDS011;17114;52.314;8.910;2023-01-19T06:45:57;18.42;;;10.27;;
30307;SDS011;17114;52.314;8.910;2023-01-19T06:48:26;19.45;;;11.25;;
30307;SDS011;17114;52.314;8.910;2023-01-19T06:50:53;18.23;;;11.50;;
30307;SDS011;17114;52.314;8.910;2023-01-19T06:53:23;19.73;;;10.88;;
30307;SDS011;17114;52.314;8.910;2023-01-19T06:55:56;15.70;;;9.93;;
30307;SDS011;17114;52.314;8.910;2023-01-19T06:58:25;22.73;;;11.20;;
30307;SDS011;17114;52.314;8.910;2023-01-19T07:00:53;20.92;;;11.40;;
30307;SDS011;17114;52.314;8.910;2023-01-19T07:03:22;19.63;;;10.45;;
30307;SDS011;17114;52.314;8.910;2023-01-19T07:05:50;17.88;;;10.38;;
30307;SDS011;17114;52.314;8.910;2023-01-19T07:08:21;21.70;;;10.18;;
30307;SDS011;17114;52.314;8.910;2023-01-19T07:10:49;20.35;;;11.57;;
30307;SDS011;17114;52.314;8.910;2023-01-19T07:13:37;18.02;;;10.77;;
30307;SDS011;17114;52.314;8.910;2023-01-19T07:16:06;15.93;;;10.30;;
30307;SDS011;17114;52.314;8.910;2023-01-19T07:18:37;19.45;;;10.40;;
30307;SDS011;17114;52.314;8.910;2023-01-19T07:21:08;16.90;;;10.88;;
30307;SDS011;17114;52.314;8.910;2023-01-19T07:23:36;17.88;;;10.90;;
30307;SDS011;17114;52.314;8.910;2023-01-19T07:26:04;14.98;;;10.45;;
30307;SDS011;17114;52.314;8.910;2023-01-19T07:31:23;14.55;;;10.43;;
30307;SDS011;17114;52.314;8.910;2023-01-19T07:33:54;21.58;;;11.32;;
30307;SDS011;17114;52.314;8.910;2023-01-19T07:36:22;17.15;;;10.70;;
30307;SDS011;17114;52.314;8.910;2023-01-19T07:38:49;16.30;;;10.60;;
30307;SDS011;17114;52.314;8.910;2023-01-19T07:41:17;15.32;;;10.40;;
30307;SDS011;17114;52.314;8.910;2023-01-19T07:43:46;18.52;;;11.43;;
30307;SDS011;17114;52.314;8.910;2023-01-19T07:46:16;17.50;;;10.68;;
30307;SDS011;17114;52.314;8.910;2023-01-19T07:48:45;14.05;;;10.63;;
30307;SDS011;17114;52.314;8.910;2023-01-19T07:51:14;16.27;;;10.65;;
30307;SDS011;17114;52.314;8.910;2023-01-19T07:53:45;16.02;;;10.70;;
30307;SDS011;17114;52.314;8.910;2023-01-19T07:56:15;14.27;;;11.13;;
30307;SDS011;17114;52.314;8.910;2023-01-19T07:58:46;16.27;;;10.38;;
30307;SDS011;17114;52.314;8.910;2023-01-19T08:01:19;17.17;;;11.20;;
30307;SDS011;17114;52.314;8.910;2023-01-19T08:03:48;17.75;;;11.05;;
30307;SDS011;17114;52.314;8.910;2023-01-19T08:06:21;15.52;;;11.05;;
30307;SDS011;17114;52.314;8.910;2023-01-19T08:08:56;18.63;;;11.88;;
30307;SDS011;17114;52.314;8.910;2023-01-19T08:11:23;15.45;;;10.98;;
30307;SDS011;17114;52.314;8.910;2023-01-19T08:13:51;17.05;;;11.60;;
30307;SDS011;17114;52.314;8.910;2023-01-19T08:16:34;15.45;;;11.35;;
30307;SDS011;17114;52.314;8.910;2023-01-19T08:19:34;16.05;;;11.85;;
30307;SDS011;17114;52.314;8.910;2023-01-19T08:22:22;13.70;;;8.87;;
30307;SDS011;17114;52.314;8.910;2023-01-19T08:24:50;15.60;;;10.93;;
30307;SDS011;17114;52.314;8.910;2023-01-19T08:27:18;15.30;;;11.45;;
30307;SDS011;17114;52.314;8.910;2023-01-19T08:29:46;16.45;;;12.07;;
30307;SDS011;17114;52.314;8.910;2023-01-19T08:32:14;16.50;;;11.95;;
30307;SDS011;17114;52.314;8.910;2023-01-19T08:34:42;17.75;;;11.68;;
30307;SDS011;17114;52.314;8.910;2023-01-19T08:37:10;16.58;;;12.23;;
30307;SDS011;17114;52.314;8.910;2023-01-19T08:39:38;20.77;;;13.32;;
30307;SDS011;17114;52.314;8.910;2023-01-19T08:42:10;17.10;;;12.07;;
30307;SDS011;17114;52.314;8.910;2023-01-19T08:44:37;17.58;;;12.02;;
30307;SDS011;17114;52.314;8.910;2023-01-19T08:47:18;17.38;;;12.57;;
30307;SDS011;17114;52.314;8.910;2023-01-19T08:49:45;17.27;;;12.25;;
30307;SDS011;17114;52.314;8.910;2023-01-19T08:52:15;17.55;;;12.10;;
30307;SDS011;17114;52.314;8.910;2023-01-19T08:54:42;18.92;;;13.20;;
30307;SDS011;17114;52.314;8.910;2023-01-19T08:57:10;17.70;;;12.93;;
30307;SDS011;17114;52.314;8.910;2023-01-19T08:59:37;18.25;;;13.15;;
30307;SDS011;17114;52.314;8.910;2023-01-19T09:02:04;19.30;;;13.32;;
30307;SDS011;17114;52.314;8.910;2023-01-19T09:04:32;18.33;;;12.88;;
30307;SDS011;17114;52.314;8.910;2023-01-19T09:07:03;19.88;;;13.38;;
30307;SDS011;17114;52.314;8.910;2023-01-19T09:09:31;21.50;;;13.98;;
30307;SDS011;17114;52.314;8.910;2023-01-19T09:12:00;18.63;;;13.23;;
30307;SDS011;17114;52.314;8.910;2023-01-19T09:14:30;20.50;;;13.23;;
30307;SDS011;17114;52.314;8.910;2023-01-19T09:17:01;19.50;;;13.90;;
30307;SDS011;17114;52.314;8.910;2023-01-19T09:19:28;20.25;;;14.18;;
30307;SDS011;17114;52.314;8.910;2023-01-19T09:21:55;20.67;;;13.30;;
30307;SDS011;17114;52.314;8.910;2023-01-19T09:24:24;19.60;;;13.32;;
30307;SDS011;17114;52.314;8.910;2023-01-19T09:26:52;20.05;;;14.13;;
30307;SDS011;17114;52.314;8.910;2023-01-19T09:29:19;19.38;;;13.57;;
30307;SDS011;17114;52.314;8.910;2023-01-19T09:31:48;18.55;;;13.27;;
30307;SDS011;17114;52.314;8.910;2023-01-19T09:34:15;19.10;;;13.57;;
30307;SDS011;17114;52.314;8.910;2023-01-19T09:36:42;20.63;;;13.80;;
30307;SDS011;17114;52.314;8.910;2023-01-19T09:39:11;19.05;;;13.00;;
30307;SDS011;17114;52.314;8.910;2023-01-19T09:41:38;17.95;;;13.18;;
30307;SDS011;17114;52.314;8.910;2023-01-19T09:44:14;20.40;;;13.80;;
30307;SDS011;17114;52.314;8.910;2023-01-19T09:46:45;20.00;;;13.20;;
30307;SDS011;17114;52.314;8.910;2023-01-19T09:49:13;19.58;;;13.40;;
30307;SDS011;17114;52.314;8.910;2023-01-19T09:51:48;24.27;;;12.60;;
30307;SDS011;17114;52.314;8.910;2023-01-19T09:56:45;21.05;;;14.00;;
30307;SDS011;17114;52.314;8.910;2023-01-19T09:59:22;21.77;;;14.23;;
30307;SDS011;17114;52.314;8.910;2023-01-19T10:04:31;19.88;;;14.35;;
30307;SDS011;17114;52.314;8.910;2023-01-19T10:13:03;22.15;;;14.68;;
30307;SDS011;17114;52.314;8.910;2023-01-19T10:15:12;20.50;;;13.68;;
30307;SDS011;17114;52.314;8.910;2023-01-19T10:20:35;19.45;;;13.63;;
30307;SDS011;17114;52.314;8.910;2023-01-19T10:23:42;22.23;;;13.40;;
30307;SDS011;17114;52.314;8.910;2023-01-19T10:28:55;22.80;;;13.95;;
30307;SDS011;17114;52.314;8.910;2023-01-19T10:31:31;20.95;;;12.85;;
30307;SDS011;17114;52.314;8.910;2023-01-19T10:34:03;20.50;;;14.05;;
30307;SDS011;17114;52.314;8.910;2023-01-19T10:36:35;20.02;;;13.32;;
30307;SDS011;17114;52.314;8.910;2023-01-19T10:39:05;17.63;;;12.00;;
30307;SDS011;17114;52.314;8.910;2023-01-19T10:41:40;23.58;;;13.10;;
30307;SDS011;17114;52.314;8.910;2023-01-19T10:44:26;21.63;;;14.73;;
30307;SDS011;17114;52.314;8.910;2023-01-19T10:46:55;22.05;;;14.00;;
30307;SDS011;17114;52.314;8.910;2023-01-19T10:49:25;20.45;;;13.10;;
30307;SDS011;17114;52.314;8.910;2023-01-19T10:51:57;24.67;;;14.93;;
30307;SDS011;17114;52.314;8.910;2023-01-19T10:54:25;24.67;;;15.30;;
30307;SDS011;17114;52.314;8.910;2023-01-19T10:56:57;21.20;;;13.27;;
30307;SDS011;17114;52.314;8.910;2023-01-19T10:59:29;16.83;;;9.52;;
30307;SDS011;17114;52.314;8.910;2023-01-19T11:02:24;20.98;;;12.10;;
30307;SDS011;17114;52.314;8.910;2023-01-19T11:04:54;19.73;;;11.98;;
30307;SDS011;17114;52.314;8.910;2023-01-19T11:15:18;22.02;;;11.05;;
30307;SDS011;17114;52.314;8.910;2023-01-19T11:17:46;18.35;;;10.85;;
30307;SDS011;17114;52.314;8.910;2023-01-19T11:20:19;15.85;;;10.57;;
30307;SDS011;17114;52.314;8.910;2023-01-19T11:22:47;19.30;;;11.52;;
30307;SDS011;17114;52.314;8.910;2023-01-19T11:25:30;20.40;;;11.20;;
30307;SDS011;17114;52.314;8.910;2023-01-19T11:27:59;22.10;;;10.57;;
30307;SDS011;17114;52.314;8.910;2023-01-19T11:30:26;20.95;;;11.05;;
30307;SDS011;17114;52.314;8.910;2023-01-19T11:33:01;19.50;;;10.68;;
30307;SDS011;17114;52.314;8.910;2023-01-19T11:35:32;18.67;;;10.43;;
30307;SDS011;17114;52.314;8.910;2023-01-19T11:40:38;21.05;;;10.65;;
30307;SDS011;17114;52.314;8.910;2023-01-19T11:43:11;18.85;;;10.75;;
30307;SDS011;17114;52.314;8.910;2023-01-19T11:45:39;21.83;;;11.10;;
30307;SDS011;17114;52.314;8.910;2023-01-19T11:48:09;19.98;;;11.07;;
30307;SDS011;17114;52.314;8.910;2023-01-19T11:51:00;18.83;;;9.90;;
30307;SDS011;17114;52.314;8.910;2023-01-19T11:53:32;21.75;;;11.25;;
30307;SDS011;17114;52.314;8.910;2023-01-19T11:58:37;19.88;;;10.73;;
30307;SDS011;17114;52.314;8.910;2023-01-19T12:06:28;20.92;;;10.07;;
30307;SDS011;17114;52.314;8.910;2023-01-19T12:11:30;24.38;;;10.50;;
30307;SDS011;17114;52.314;8.910;2023-01-19T12:14:00;24.65;;;10.23;;
30307;SDS011;17114;52.314;8.910;2023-01-19T12:16:29;21.88;;;10.52;;
30307;SDS011;17114;52.314;8.910;2023-01-19T12:18:59;17.83;;;9.80;;
30307;SDS011;17114;52.314;8.910;2023-01-19T12:21:31;27.95;;;11.05;;
30307;SDS011;17114;52.314;8.910;2023-01-19T12:24:12;33.00;;;11.85;;
30307;SDS011;17114;52.314;8.910;2023-01-19T12:26:48;25.85;;;11.00;;
30307;SDS011;17114;52.314;8.910;2023-01-19T12:29:20;31.98;;;10.63;;
30307;SDS011;17114;52.314;8.910;2023-01-19T12:39:55;23.77;;;10.57;;
30307;SDS011;17114;52.314;8.910;2023-01-19T12:42:45;23.00;;;9.40;;
30307;SDS011;17114;52.314;8.910;2023-01-19T12:45:17;16.40;;;7.60;;
30307;SDS011;17114;52.314;8.910;2023-01-19T12:47:50;19.65;;;8.98;;
30307;SDS011;17114;52.314;8.910;2023-01-19T12:50:22;27.35;;;9.43;;
30307;SDS011;17114;52.314;8.910;2023-01-19T12:52:58;23.98;;;9.15;;
30307;SDS011;17114;52.314;8.910;2023-01-19T12:55:32;21.45;;;8.45;;
30307;SDS011;17114;52.314;8.910;2023-01-19T12:58:13;24.50;;;8.63;;
30307;SDS011;17114;52.314;8.910;2023-01-19T13:00:44;28.48;;;9.27;;
30307;SDS011;17114;52.314;8.910;2023-01-19T13:13:36;19.88;;;7.78;;
30307;SDS011;17114;52.314;8.910;2023-01-19T13:21:25;22.13;;;7.50;;
30307;SDS011;17114;52.314;8.910;2023-01-19T13:23:57;21.73;;;6.65;;
30307;SDS011;17114;52.314;8.910;2023-01-19T13:31:39;22.20;;;6.57;;
30307;SDS011;17114;52.314;8.910;2023-01-19T13:34:12;19.45;;;7.38;;
30307;SDS011;17114;52.314;8.910;2023-01-19T13:36:43;15.05;;;4.75;;
30307;SDS011;17114;52.314;8.910;2023-01-19T13:39:13;16.50;;;5.20;;
30307;SDS011;17114;52.314;8.910;2023-01-19T13:41:43;20.90;;;6.60;;
30307;SDS011;17114;52.314;8.910;2023-01-19T13:44:25;24.40;;;5.68;;
30307;SDS011;17114;52.314;8.910;2023-01-19T13:46:56;21.08;;;5.43;;
30307;SDS011;17114;52.314;8.910;2023-01-19T13:49:26;18.52;;;5.25;;
30307;SDS011;17114;52.314;8.910;2023-01-19T13:54:47;25.55;;;5.82;;
30307;SDS011;17114;52.314;8.910;2023-01-19T13:57:25;20.15;;;5.97;;
30307;SDS011;17114;52.314;8.910;2023-01-19T14:02:40;18.10;;;5.97;;
30307;SDS011;17114;52.314;8.910;2023-01-19T14:05:39;16.92;;;5.80;;
30307;SDS011;17114;52.314;8.910;2023-01-19T14:10:39;35.05;;;7.60;;
30307;SDS011;17114;52.314;8.910;2023-01-19T14:21:00;13.75;;;6.35;;
30307;SDS011;17114;52.314;8.910;2023-01-19T14:23:47;20.52;;;5.88;;
30307;SDS011;17114;52.314;8.910;2023-01-19T14:31:44;26.05;;;7.05;;
30307;SDS011;17114;52.314;8.910;2023-01-19T14:34:36;16.55;;;6.55;;
30307;SDS011;17114;52.314;8.910;2023-01-19T14:37:50;21.05;;;7.22;;
30307;SDS011;17114;52.314;8.910;2023-01-19T14:47:53;24.83;;;8.03;;
30307;SDS011;17114;52.314;8.910;2023-01-19T14:53:20;23.38;;;8.25;;
30307;SDS011;17114;52.314;8.910;2023-01-19T14:55:54;30.52;;;9.35;;
30307;SDS011;17114;52.314;8.910;2023-01-19T14:58:26;23.73;;;10.55;;
30307;SDS011;17114;52.314;8.910;2023-01-19T15:00:55;23.35;;;10.20;;
30307;SDS011;17114;52.314;8.910;2023-01-19T15:03:23;27.10;;;10.52;;
30307;SDS011;17114;52.314;8.910;2023-01-19T15:06:17;29.60;;;11.05;;
30307;SDS011;17114;52.314;8.910;2023-01-19T15:08:46;28.73;;;10.93;;
30307;SDS011;17114;52.314;8.910;2023-01-19T15:13:42;29.35;;;12.00;;
30307;SDS011;17114;52.314;8.910;2023-01-19T15:16:10;31.10;;;12.65;;
30307;SDS011;17114;52.314;8.910;2023-01-19T15:18:40;30.73;;;13.10;;
30307;SDS011;17114;52.314;8.910;2023-01-19T15:21:12;33.85;;;12.82;;
30307;SDS011;17114;52.314;8.910;2023-01-19T15:23:41;27.63;;;12.65;;
30307;SDS011;17114;52.314;8.910;2023-01-19T15:26:09;35.30;;;13.68;;
30307;SDS011;17114;52.314;8.910;2023-01-19T15:28:40;34.97;;;14.35;;
30307;SDS011;17114;52.314;8.910;2023-01-19T15:31:10;29.40;;;14.45;;
30307;SDS011;17114;52.314;8.910;2023-01-19T15:33:43;32.53;;;14.82;;
30307;SDS011;17114;52.314;8.910;2023-01-19T15:36:17;31.23;;;15.25;;
30307;SDS011;17114;52.314;8.910;2023-01-19T15:38:46;33.42;;;15.15;;
30307;SDS011;17114;52.314;8.910;2023-01-19T15:41:25;42.50;;;15.82;;
30307;SDS011;17114;52.314;8.910;2023-01-19T15:43:55;37.38;;;16.02;;
30307;SDS011;17114;52.314;8.910;2023-01-19T15:46:23;30.52;;;15.55;;
30307;SDS011;17114;52.314;8.910;2023-01-19T15:48:51;34.47;;;14.80;;
30307;SDS011;17114;52.314;8.910;2023-01-19T15:51:20;36.25;;;15.57;;
30307;SDS011;17114;52.314;8.910;2023-01-19T15:53:51;39.33;;;14.57;;
30307;SDS011;17114;52.314;8.910;2023-01-19T15:56:20;40.90;;;16.40;;
30307;SDS011;17114;52.314;8.910;2023-01-19T15:58:47;31.17;;;15.60;;
30307;SDS011;17114;52.314;8.910;2023-01-19T16:01:16;32.40;;;16.35;;
30307;SDS011;17114;52.314;8.910;2023-01-19T16:03:48;41.15;;;15.88;;
30307;SDS011;17114;52.314;8.910;2023-01-19T16:06:16;35.83;;;16.10;;
30307;SDS011;17114;52.314;8.910;2023-01-19T16:08:43;41.88;;;16.65;;
30307;SDS011;17114;52.314;8.910;2023-01-19T16:11:12;36.90;;;16.63;;
30307;SDS011;17114;52.314;8.910;2023-01-19T16:13:43;43.78;;;17.25;;
30307;SDS011;17114;52.314;8.910;2023-01-19T16:16:13;40.42;;;17.92;;
30307;SDS011;17114;52.314;8.910;2023-01-19T16:18:44;38.95;;;17.25;;
30307;SDS011;17114;52.314;8.910;2023-01-19T16:21:12;41.28;;;17.90;;
30307;SDS011;17114;52.314;8.910;2023-01-19T16:23:39;42.17;;;17.85;;
30307;SDS011;17114;52.314;8.910;2023-01-19T16:26:21;39.40;;;17.58;;
30307;SDS011;17114;52.314;8.910;2023-01-19T16:28:51;40.50;;;16.48;;
30307;SDS011;17114;52.314;8.910;2023-01-19T16:31:21;42.53;;;17.70;;
30307;SDS011;17114;52.314;8.910;2023-01-19T16:33:48;46.90;;;18.45;;
30307;SDS011;17114;52.314;8.910;2023-01-19T16:36:23;46.22;;;19.38;;
30307;SDS011;17114;52.314;8.910;2023-01-19T16:38:51;40.78;;;18.67;;
30307;SDS011;17114;52.314;8.910;2023-01-19T16:41:19;41.70;;;19.50;;
30307;SDS011;17114;52.314;8.910;2023-01-19T16:43:50;40.03;;;18.92;;
30307;SDS011;17114;52.314;8.910;2023-01-19T16:46:21;42.63;;;18.52;;